Terminal Aerodrome Forecast
Issued by NWS Charleston, WV

Current Version | Previous Version | Text Only | Print | Product List | Glossary Off
Versions: 1 2 3 4 5 6 7 8 9 10 11 12 13 14 15 16 17 18 19 20 21 22 23 24

000
FTUS41 KRLX 262300
TAFPKB
TAF
KPKB 262330Z 2700/2724 VRB03KT P6SM FEW250
     FM270700 00000KT 6SM BR SCT100
     FM271000 00000KT 4SM BR BKN100
     FM271200 00000KT P6SM BKN080
     FM271400 VRB03KT P6SM VCTS BKN040CB=

USA.gov is the U.S. government's official web portal to all federal, state and local government web resources and services.